Terminal Aerodrome Forecast
Issued by NWS

Home | Current Version | Previous Version | Text Only | Print | Product List | Glossary On
Versions: 1 2 3 4 5 6 7 8 9 10 11 12 13 14 15 16 17 18 19 20 21 22 23 24 25 26 27
000
FTUS46 KOTX 112335
TAFPUW
TAF
KPUW 112335Z 1200/1224 11005KT P6SM VCSH SCT050 OVC090
     FM120400 11006KT P6SM -RA SCT020 OVC045
     FM120900 10006KT P6SM BKN050 OVC100
     FM122000 15008KT P6SM SCT100 BKN250=

USA.gov is the U.S. government's official web portal to all federal, state and local government web resources and services.